createdAt,value
2018-12-21T00:01:18.013Z,10.57
2018-12-21T00:06:21.672Z,4.43
2018-12-21T00:11:25.218Z,2.97
2018-12-21T00:16:28.807Z,9.73
2018-12-21T00:21:32.260Z,4.23
2018-12-21T00:26:35.680Z,6.20
2018-12-21T00:31:44.388Z,6.10
2018-12-21T00:36:53.048Z,4.63
2018-12-21T00:41:55.799Z,5.33
2018-12-21T00:47:02.006Z,5.80
2018-12-21T00:52:06.003Z,5.73
2018-12-21T00:57:09.584Z,8.23
2018-12-21T01:02:13.237Z,9.03
2018-12-21T01:07:16.776Z,6.43
2018-12-21T01:12:20.532Z,2.97
2018-12-21T01:17:24.012Z,5.33
2018-12-21T01:22:28.297Z,11.53
2018-12-21T01:27:31.785Z,7.13
2018-12-21T01:32:35.352Z,3.20
2018-12-21T01:37:38.804Z,12.80
2018-12-21T01:42:42.219Z,6.20
2018-12-21T01:47:45.737Z,4.83
2018-12-21T01:52:49.265Z,9.13
2018-12-21T01:57:52.722Z,4.63
2018-12-21T02:02:56.244Z,10.83
2018-12-21T02:07:59.909Z,7.17
2018-12-21T02:13:03.527Z,8.60
2018-12-21T02:18:07.032Z,7.57
2018-12-21T02:23:10.531Z,3.57
2018-12-21T02:28:14.172Z,8.20
2018-12-21T02:33:17.608Z,5.13
2018-12-21T02:38:21.082Z,6.90
2018-12-21T02:43:24.560Z,7.57
2018-12-21T02:48:28.106Z,6.20
2018-12-21T02:53:31.535Z,6.27
2018-12-21T02:58:35.197Z,4.43
2018-12-21T03:03:38.735Z,4.90
2018-12-21T03:08:42.328Z,3.90
2018-12-21T03:13:52.240Z,4.90
2018-12-21T03:18:56.431Z,5.17
2018-12-21T03:23:59.989Z,8.17
2018-12-21T03:29:03.565Z,3.17
2018-12-21T03:34:07.011Z,9.37
2018-12-21T03:39:10.789Z,3.67
2018-12-21T03:44:14.548Z,4.83
2018-12-21T03:49:18.086Z,7.57
2018-12-21T03:54:21.503Z,4.90
2018-12-21T03:59:25.259Z,8.30
2018-12-21T04:04:28.720Z,9.73
2018-12-21T04:09:32.141Z,5.13
2018-12-21T04:14:35.652Z,5.30
2018-12-21T04:19:39.316Z,3.10
2018-12-21T04:24:42.960Z,5.97
2018-12-21T04:29:46.374Z,5.57
2018-12-21T04:34:49.873Z,5.87
2018-12-21T04:39:53.313Z,6.87
2018-12-21T04:44:56.740Z,4.83
2018-12-21T04:50:00.383Z,9.03
2018-12-21T04:55:04.217Z,5.77
2018-12-21T05:00:08.133Z,4.23
2018-12-21T05:05:11.611Z,2.90
2018-12-21T05:10:15.158Z,3.63
2018-12-21T05:15:18.646Z,2.97
2018-12-21T05:20:22.169Z,2.03
2018-12-21T05:25:25.621Z,7.37
2018-12-21T05:30:29.085Z,5.73
2018-12-21T05:35:32.561Z,6.53
2018-12-21T05:40:36.011Z,3.63
2018-12-21T05:45:39.532Z,3.27
2018-12-21T05:50:43.107Z,6.07
2018-12-21T05:55:46.540Z,3.80
2018-12-21T06:00:50.124Z,2.70
2018-12-21T06:05:53.842Z,2.57
2018-12-21T06:10:57.259Z,2.37
2018-12-21T06:16:00.764Z,4.03
2018-12-21T06:21:04.240Z,5.20
2018-12-21T06:26:07.802Z,3.07
2018-12-21T06:31:11.407Z,0.93
2018-12-21T06:36:14.878Z,2.00
2018-12-21T06:41:18.400Z,2.80
2018-12-21T06:46:22.055Z,1.23
2018-12-21T06:51:26.199Z,1.90
2018-12-21T06:56:29.616Z,0.97
2018-12-21T07:01:33.208Z,1.43
2018-12-21T07:06:36.940Z,1.57
2018-12-21T07:11:40.392Z,1.40
2018-12-21T07:16:44.055Z,1.50
2018-12-21T07:21:47.595Z,1.00
2018-12-21T07:26:51.133Z,1.23
2018-12-21T07:31:54.812Z,0.77
2018-12-21T07:36:58.338Z,1.03
2018-12-21T07:42:01.845Z,1.43
2018-12-21T07:47:05.268Z,0.80
2018-12-21T07:52:08.800Z,0.80
2018-12-21T07:57:12.232Z,0.80
2018-12-21T08:02:15.748Z,0.87
2018-12-21T08:07:19.405Z,1.00
2018-12-21T08:12:22.835Z,1.57
2018-12-21T08:17:26.271Z,0.93
2018-12-21T08:22:29.920Z,0.70
2018-12-21T08:27:33.500Z,0.80
2018-12-21T08:32:37.136Z,1.67
2018-12-21T08:37:40.680Z,4.17
2018-12-21T08:42:44.936Z,1.87
2018-12-21T08:47:48.432Z,1.73
2018-12-21T08:52:52.337Z,2.83
2018-12-21T08:57:55.787Z,2.10
2018-12-21T09:02:59.332Z,1.90
2018-12-21T09:08:02.778Z,1.73
2018-12-21T09:13:06.272Z,1.17
2018-12-21T09:18:09.788Z,1.40
2018-12-21T09:23:13.332Z,1.10
2018-12-21T09:28:16.789Z,1.13
2018-12-21T09:33:20.272Z,0.80
2018-12-21T09:38:23.699Z,2.07
2018-12-21T09:43:27.265Z,1.10
2018-12-21T09:48:30.680Z,1.43
2018-12-21T09:53:34.271Z,0.87
2018-12-21T09:58:37.760Z,0.50
2018-12-21T10:03:41.320Z,1.03
2018-12-21T10:08:44.740Z,0.43
2018-12-21T10:13:48.406Z,1.73
2018-12-21T10:18:51.841Z,0.30
2018-12-21T10:23:55.336Z,0.20
2018-12-21T10:28:58.761Z,0.40
2018-12-21T10:34:02.188Z,0.53
2018-12-21T10:39:07.467Z,0.20
2018-12-21T10:44:10.924Z,0.27
2018-12-21T10:49:20.893Z,10.17
2018-12-21T10:54:26.958Z,0.30
2018-12-21T10:59:29.960Z,0.20
2018-12-21T11:04:33.589Z,0.53
2018-12-21T11:09:37.084Z,0.20
2018-12-21T11:14:40.895Z,0.10
2018-12-21T11:19:44.453Z,3.07
2018-12-21T11:24:49.029Z,0.27
2018-12-21T11:29:52.559Z,0.40
2018-12-21T11:34:56.101Z,0.20
2018-12-21T11:39:59.779Z,0.70
2018-12-21T11:45:03.248Z,0.50
2018-12-21T11:50:09.101Z,0.40
2018-12-21T11:55:12.624Z,0.40
2018-12-21T12:00:16.142Z,0.20
2018-12-21T12:05:19.681Z,0.27
2018-12-21T12:10:23.123Z,0.10
2018-12-21T12:15:28.586Z,0.60
2018-12-21T12:20:32.188Z,0.10
2018-12-21T12:25:35.664Z,0.10
2018-12-21T12:30:39.094Z,0.30
2018-12-21T12:35:42.644Z,0.73
2018-12-21T12:40:46.199Z,0.50
2018-12-21T12:45:49.781Z,0.70
2018-12-21T12:50:53.221Z,0.90
2018-12-21T12:55:56.828Z,0.80
2018-12-21T13:01:00.416Z,0.33
2018-12-21T13:06:04.120Z,0.40
2018-12-21T13:11:07.607Z,0.40
2018-12-21T13:16:11.088Z,0.80
2018-12-21T13:21:14.584Z,1.97
2018-12-21T13:26:18.077Z,3.80
2018-12-21T13:31:21.564Z,1.10
2018-12-21T13:36:25.076Z,1.97
2018-12-21T13:41:28.648Z,0.80
2018-12-21T13:46:32.151Z,2.00
2018-12-21T13:51:35.676Z,0.50
2018-12-21T13:56:39.133Z,1.23
2018-12-21T14:01:42.625Z,4.10
2018-12-21T14:06:52.564Z,5.53
2018-12-21T14:11:56.009Z,1.10
2018-12-21T14:16:59.624Z,0.20
2018-12-21T14:22:03.124Z,1.60
2018-12-21T14:27:06.612Z,1.63
2018-12-21T14:32:10.133Z,1.43
2018-12-21T14:37:13.677Z,1.17
2018-12-21T14:42:17.243Z,4.27
2018-12-21T14:47:20.709Z,3.30
2018-12-21T14:53:26.663Z,2.70
2018-12-21T14:58:30.083Z,1.83
2018-12-21T15:03:33.484Z,1.67
2018-12-21T15:08:37.009Z,0.70
2018-12-21T15:13:40.416Z,1.17
2018-12-21T15:18:44.042Z,1.27
2018-12-21T15:23:47.675Z,1.40
2018-12-21T15:34:00.686Z,1.60
2018-12-21T15:39:06.175Z,1.43
2018-12-21T15:44:09.616Z,1.13
2018-12-21T15:49:13.028Z,1.00
2018-12-21T15:54:16.673Z,1.37
2018-12-21T15:59:20.075Z,0.97
2018-12-21T16:04:23.604Z,1.20
2018-12-21T16:09:28.168Z,1.23
2018-12-21T16:14:34.669Z,1.30
2018-12-21T16:19:37.121Z,2.93
2018-12-21T16:24:40.648Z,1.40
2018-12-21T16:29:44.118Z,1.10
2018-12-21T16:34:47.746Z,2.57
2018-12-21T16:39:51.368Z,1.30
2018-12-21T16:44:54.884Z,0.60
2018-12-21T16:49:58.489Z,1.23
2018-12-21T16:55:02.095Z,3.43
2018-12-21T17:00:09.364Z,1.13
2018-12-21T17:05:13.136Z,1.43
2018-12-21T17:10:20.177Z,2.83
2018-12-21T17:15:23.837Z,1.70
2018-12-21T17:20:27.597Z,2.03
2018-12-21T17:25:32.244Z,2.43
2018-12-21T17:30:35.920Z,2.33
2018-12-21T17:35:39.632Z,3.87
2018-12-21T17:40:43.132Z,1.60
2018-12-21T17:45:46.760Z,1.37
2018-12-21T17:50:50.288Z,1.83
2018-12-21T17:55:53.708Z,2.70
2018-12-21T18:00:57.432Z,1.50
2018-12-21T18:06:00.868Z,2.20
2018-12-21T18:11:04.650Z,4.33
2018-12-21T18:16:08.076Z,2.53
2018-12-21T18:21:11.500Z,3.30
2018-12-21T18:26:15.188Z,1.70
2018-12-21T18:31:26.724Z,2.80
2018-12-21T18:36:30.251Z,4.07
2018-12-21T18:41:33.751Z,1.27
2018-12-21T18:46:37.180Z,2.47
2018-12-21T18:51:40.751Z,2.40
2018-12-21T18:56:55.371Z,1.60
2018-12-21T19:01:58.789Z,2.33
2018-12-21T19:07:02.490Z,2.40
2018-12-21T19:12:06.377Z,3.50
2018-12-21T19:17:09.893Z,2.67
2018-12-21T19:22:13.453Z,6.17
2018-12-21T19:27:17.043Z,8.37
2018-12-21T19:32:20.532Z,8.73
2018-12-21T19:37:24.804Z,6.90
2018-12-21T19:42:28.387Z,4.77
2018-12-21T19:47:31.844Z,6.53
2018-12-21T19:52:35.516Z,4.27
2018-12-21T19:57:38.928Z,6.23
2018-12-21T20:02:42.586Z,5.20
2018-12-21T20:07:46.060Z,3.70
2018-12-21T20:12:49.795Z,7.30
2018-12-21T20:17:53.421Z,5.00
2018-12-21T20:22:56.951Z,7.30
2018-12-21T20:28:00.452Z,3.43
2018-12-21T20:33:04.192Z,4.63
2018-12-21T20:38:07.763Z,4.80
2018-12-21T20:43:11.477Z,4.33
2018-12-21T20:48:14.990Z,4.90
2018-12-21T20:53:18.503Z,3.27
2018-12-21T20:58:56.997Z,5.30
2018-12-21T21:04:00.667Z,2.17
2018-12-21T21:09:05.381Z,6.20
2018-12-21T21:14:10.271Z,9.23
2018-12-21T21:19:14.200Z,4.33
2018-12-21T21:24:17.719Z,6.90
2018-12-21T21:29:21.360Z,4.70
2018-12-21T21:34:24.832Z,7.00
2018-12-21T21:39:28.336Z,7.80
2018-12-21T21:44:31.955Z,5.50
2018-12-21T21:49:35.460Z,8.77
2018-12-21T21:54:39.020Z,7.67
2018-12-21T21:59:42.620Z,8.40
2018-12-21T22:04:46.137Z,9.80
2018-12-21T22:09:49.828Z,9.57
2018-12-21T22:14:53.360Z,7.77
2018-12-21T22:19:57.111Z,6.53
2018-12-21T22:25:00.633Z,7.93
2018-12-21T22:30:06.348Z,7.07
2018-12-21T22:35:10.055Z,8.73
2018-12-21T22:40:13.769Z,7.67
2018-12-21T22:45:17.298Z,7.03
2018-12-21T22:50:21.471Z,7.83
2018-12-21T22:55:24.920Z,12.10
2018-12-21T23:00:34.866Z,11.70
2018-12-21T23:05:38.376Z,9.07
2018-12-21T23:10:41.785Z,7.73
2018-12-21T23:15:45.455Z,12.50
2018-12-21T23:20:49.071Z,8.50
2018-12-21T23:25:52.576Z,7.10
2018-12-21T23:30:56.024Z,8.80
2018-12-21T23:36:00.128Z,11.43
2018-12-21T23:41:03.547Z,9.97
2018-12-21T23:46:07.176Z,11.23
2018-12-21T23:51:10.734Z,10.30
2018-12-21T23:56:14.484Z,17.33
